sensor_id;sensor_type;location;lat;lon;timestamp;pressure;altitude;pressure_sealevel;temperature;humidity
48027;BME280;50714;49.208;5.364;2024-03-06T00:04:05;99595.50;;;4.54;98.76
48027;BME280;50714;49.208;5.364;2024-03-06T00:14:06;99597.81;;;4.40;98.37
48027;BME280;50714;49.208;5.364;2024-03-06T00:24:06;99610.66;;;4.37;100.00
48027;BME280;50714;49.208;5.364;2024-03-06T00:34:07;99617.81;;;4.36;100.00
48027;BME280;50714;49.208;5.364;2024-03-06T00:44:07;99615.56;;;4.16;98.20
48027;BME280;50714;49.208;5.364;2024-03-06T00:54:08;99635.25;;;4.15;100.00
48027;BME280;50714;49.208;5.364;2024-03-06T01:04:08;99639.75;;;4.14;99.75
48027;BME280;50714;49.208;5.364;2024-03-06T01:14:08;99634.22;;;4.07;99.75
48027;BME280;50714;49.208;5.364;2024-03-06T01:24:08;99633.00;;;4.02;100.00
48027;BME280;50714;49.208;5.364;2024-03-06T01:34:09;99644.56;;;3.76;99.67
48027;BME280;50714;49.208;5.364;2024-03-06T01:44:09;99644.22;;;3.80;100.00
48027;BME280;50714;49.208;5.364;2024-03-06T01:54:09;99636.84;;;3.73;100.00
48027;BME280;50714;49.208;5.364;2024-03-06T02:04:12;99632.13;;;3.67;100.00
48027;BME280;50714;49.208;5.364;2024-03-06T02:14:12;99641.22;;;3.57;99.62
48027;BME280;50714;49.208;5.364;2024-03-06T02:24:13;99651.00;;;3.48;99.57
48027;BME280;50714;49.208;5.364;2024-03-06T02:34:14;99650.31;;;3.46;100.00
48027;BME280;50714;49.208;5.364;2024-03-06T02:44:15;99658.31;;;3.46;100.00
48027;BME280;50714;49.208;5.364;2024-03-06T02:54:17;99669.22;;;3.35;100.00
48027;BME280;50714;49.208;5.364;2024-03-06T03:04:18;99673.50;;;3.28;100.00
48027;BME280;50714;49.208;5.364;2024-03-06T03:14:18;99669.69;;;3.30;100.00
48027;BME280;50714;49.208;5.364;2024-03-06T03:24:19;99680.19;;;3.32;100.00
48027;BME280;50714;49.208;5.364;2024-03-06T03:34:22;99689.72;;;3.17;100.00
48027;BME280;50714;49.208;5.364;2024-03-06T03:44:23;99694.09;;;3.08;100.00
48027;BME280;50714;49.208;5.364;2024-03-06T03:54:23;99698.78;;;3.06;100.00
48027;BME280;50714;49.208;5.364;2024-03-06T04:04:24;99708.97;;;3.11;100.00
48027;BME280;50714;49.208;5.364;2024-03-06T04:14:24;99705.41;;;3.02;100.00
48027;BME280;50714;49.208;5.364;2024-03-06T04:24:26;99707.81;;;2.95;100.00
48027;BME280;50714;49.208;5.364;2024-03-06T04:34:27;99719.94;;;3.07;100.00
48027;BME280;50714;49.208;5.364;2024-03-06T04:44:27;99718.78;;;3.10;100.00
48027;BME280;50714;49.208;5.364;2024-03-06T04:54:28;99728.31;;;2.95;100.00
48027;BME280;50714;49.208;5.364;2024-03-06T05:04:29;99741.63;;;2.95;100.00
48027;BME280;50714;49.208;5.364;2024-03-06T05:14:29;99757.81;;;3.11;100.00
48027;BME280;50714;49.208;5.364;2024-03-06T05:24:29;99762.66;;;3.25;100.00
48027;BME280;50714;49.208;5.364;2024-03-06T05:34:30;99777.53;;;3.46;100.00
48027;BME280;50714;49.208;5.364;2024-03-06T05:44:33;99793.47;;;3.55;100.00
48027;BME280;50714;49.208;5.364;2024-03-06T05:54:34;99808.66;;;3.72;100.00
48027;BME280;50714;49.208;5.364;2024-03-06T06:04:35;99821.16;;;3.90;100.00
48027;BME280;50714;49.208;5.364;2024-03-06T06:14:35;99837.81;;;4.01;100.00
48027;BME280;50714;49.208;5.364;2024-03-06T06:24:36;99825.81;;;4.05;100.00
48027;BME280;50714;49.208;5.364;2024-03-06T06:34:36;99847.16;;;4.05;100.00
48027;BME280;50714;49.208;5.364;2024-03-06T06:44:36;99860.75;;;4.12;100.00
48027;BME280;50714;49.208;5.364;2024-03-06T06:54:37;99865.41;;;4.28;100.00
48027;BME280;50714;49.208;5.364;2024-03-06T07:04:37;99869.69;;;4.38;100.00
48027;BME280;50714;49.208;5.364;2024-03-06T07:14:37;99882.19;;;4.38;100.00
48027;BME280;50714;49.208;5.364;2024-03-06T07:24:38;99880.78;;;4.52;100.00
48027;BME280;50714;49.208;5.364;2024-03-06T07:34:39;99884.84;;;5.07;100.00
48027;BME280;50714;49.208;5.364;2024-03-06T07:44:39;99887.09;;;6.85;100.00
48027;BME280;50714;49.208;5.364;2024-03-06T07:54:39;99896.66;;;6.88;98.86
48027;BME280;50714;49.208;5.364;2024-03-06T08:04:39;99894.16;;;6.22;100.00
48027;BME280;50714;49.208;5.364;2024-03-06T08:14:40;99900.50;;;5.62;100.00
48027;BME280;50714;49.208;5.364;2024-03-06T08:24:41;99912.09;;;5.37;100.00
48027;BME280;50714;49.208;5.364;2024-03-06T08:34:42;99925.84;;;5.42;100.00
48027;BME280;50714;49.208;5.364;2024-03-06T08:44:42;99943.22;;;5.38;100.00
48027;BME280;50714;49.208;5.364;2024-03-06T08:54:43;99956.84;;;5.19;100.00
48027;BME280;50714;49.208;5.364;2024-03-06T09:04:44;99961.50;;;5.42;100.00
48027;BME280;50714;49.208;5.364;2024-03-06T09:14:44;99961.09;;;5.63;100.00
48027;BME280;50714;49.208;5.364;2024-03-06T09:24:45;99967.41;;;6.95;100.00
48027;BME280;50714;49.208;5.364;2024-03-06T09:34:45;99977.19;;;7.68;100.00
48027;BME280;50714;49.208;5.364;2024-03-06T09:44:45;99976.22;;;8.84;100.00
48027;BME280;50714;49.208;5.364;2024-03-06T09:54:48;99985.03;;;9.16;99.18
48027;BME280;50714;49.208;5.364;2024-03-06T10:04:49;99973.91;;;14.17;97.04
48027;BME280;50714;49.208;5.364;2024-03-06T10:14:53;99983.06;;;17.71;83.40
48027;BME280;50714;49.208;5.364;2024-03-06T10:24:57;99978.88;;;19.84;59.82
48027;BME280;50714;49.208;5.364;2024-03-06T10:34:57;99971.47;;;20.67;62.20
48027;BME280;50714;49.208;5.364;2024-03-06T10:44:59;99975.94;;;22.06;58.85
48027;BME280;50714;49.208;5.364;2024-03-06T10:55:00;99978.84;;;21.89;52.01
48027;BME280;50714;49.208;5.364;2024-03-06T11:05:02;99977.34;;;22.96;51.08
48027;BME280;50714;49.208;5.364;2024-03-06T11:15:15;99981.03;;;22.39;41.96
48027;BME280;50714;49.208;5.364;2024-03-06T11:46:17;99983.19;;;17.64;50.16
48027;BME280;50714;49.208;5.364;2024-03-06T11:56:18;99976.56;;;16.65;50.71
48027;BME280;50714;49.208;5.364;2024-03-06T12:06:20;99982.09;;;15.43;50.03
48027;BME280;50714;49.208;5.364;2024-03-06T12:16:20;99985.47;;;15.13;50.93
48027;BME280;50714;49.208;5.364;2024-03-06T12:26:22;99970.91;;;14.31;51.51
48027;BME280;50714;49.208;5.364;2024-03-06T12:36:25;99972.06;;;14.04;50.47
48027;BME280;50714;49.208;5.364;2024-03-06T12:46:25;99973.84;;;13.52;52.54
48027;BME280;50714;49.208;5.364;2024-03-06T12:56:27;99968.84;;;13.56;54.06
48027;BME280;50714;49.208;5.364;2024-03-06T13:06:27;99972.13;;;13.91;54.06
48027;BME280;50714;49.208;5.364;2024-03-06T13:16:29;99974.84;;;13.71;54.47
48027;BME280;50714;49.208;5.364;2024-03-06T13:26:41;99973.88;;;13.39;55.54
48027;BME280;50714;49.208;5.364;2024-03-06T13:36:42;99964.66;;;13.01;56.74
48027;BME280;50714;49.208;5.364;2024-03-06T13:46:44;99980.22;;;12.52;57.43
48027;BME280;50714;49.208;5.364;2024-03-06T13:56:44;99980.03;;;12.00;59.01
48027;BME280;50714;49.208;5.364;2024-03-06T14:06:46;99986.94;;;11.74;59.81
48027;BME280;50714;49.208;5.364;2024-03-06T14:16:46;99992.16;;;11.48;60.98
48027;BME280;50714;49.208;5.364;2024-03-06T14:26:47;99998.16;;;11.43;60.99
48027;BME280;50714;49.208;5.364;2024-03-06T14:36:47;99997.88;;;11.32;62.14
48027;BME280;50714;49.208;5.364;2024-03-06T14:46:48;99999.28;;;11.27;62.95
48027;BME280;50714;49.208;5.364;2024-03-06T14:56:48;99996.13;;;11.24;63.22
48027;BME280;50714;49.208;5.364;2024-03-06T15:06:49;99996.97;;;11.24;63.53
48027;BME280;50714;49.208;5.364;2024-03-06T15:16:50;99998.09;;;11.37;63.81
48027;BME280;50714;49.208;5.364;2024-03-06T15:26:50;99997.44;;;11.35;62.87
48027;BME280;50714;49.208;5.364;2024-03-06T15:36:51;99990.41;;;11.12;62.28
48027;BME280;50714;49.208;5.364;2024-03-06T15:46:51;99986.06;;;10.90;63.87
48027;BME280;50714;49.208;5.364;2024-03-06T15:56:51;99986.59;;;10.79;63.96
48027;BME280;50714;49.208;5.364;2024-03-06T16:06:52;99986.78;;;10.77;64.71
48027;BME280;50714;49.208;5.364;2024-03-06T16:16:52;99986.97;;;10.76;64.82
48027;BME280;50714;49.208;5.364;2024-03-06T16:26:53;100003.53;;;10.73;64.50
48027;BME280;50714;49.208;5.364;2024-03-06T16:36:53;100009.97;;;10.72;65.82
48027;BME280;50714;49.208;5.364;2024-03-06T16:46:53;100012.41;;;10.67;65.92
48027;BME280;50714;49.208;5.364;2024-03-06T16:56:54;100018.88;;;10.51;66.42
48027;BME280;50714;49.208;5.364;2024-03-06T17:06:54;100021.16;;;10.33;65.99
48027;BME280;50714;49.208;5.364;2024-03-06T17:16:54;100021.72;;;10.13;66.37
48027;BME280;50714;49.208;5.364;2024-03-06T17:26:55;100026.25;;;9.98;67.31
48027;BME280;50714;49.208;5.364;2024-03-06T17:36:56;100036.69;;;9.86;67.56
48027;BME280;50714;49.208;5.364;2024-03-06T17:46:56;100040.00;;;9.74;68.28
48027;BME280;50714;49.208;5.364;2024-03-06T17:56:56;100055.78;;;9.47;69.53
48027;BME280;50714;49.208;5.364;2024-03-06T18:06:58;100056.72;;;9.17;71.09
48027;BME280;50714;49.208;5.364;2024-03-06T18:16:59;100071.38;;;8.92;72.71
48027;BME280;50714;49.208;5.364;2024-03-06T18:27:00;100064.13;;;8.69;73.67
48027;BME280;50714;49.208;5.364;2024-03-06T18:37:00;100067.97;;;8.44;75.09
48027;BME280;50714;49.208;5.364;2024-03-06T18:47:00;100070.50;;;8.29;76.06
48027;BME280;50714;49.208;5.364;2024-03-06T18:57:01;100082.19;;;8.05;76.21
48027;BME280;50714;49.208;5.364;2024-03-06T19:07:03;100084.31;;;7.71;77.66
48027;BME280;50714;49.208;5.364;2024-03-06T19:17:05;100087.50;;;7.66;78.60
48027;BME280;50714;49.208;5.364;2024-03-06T19:27:05;100079.97;;;7.53;80.25
48027;BME280;50714;49.208;5.364;2024-03-06T19:37:06;100089.69;;;7.55;81.06
48027;BME280;50714;49.208;5.364;2024-03-06T19:47:07;100084.47;;;7.61;81.26
48027;BME280;50714;49.208;5.364;2024-03-06T19:57:07;100076.75;;;7.58;80.98
48027;BME280;50714;49.208;5.364;2024-03-06T20:07:08;100073.75;;;7.45;81.89
48027;BME280;50714;49.208;5.364;2024-03-06T20:17:09;100074.78;;;7.28;82.68
48027;BME280;50714;49.208;5.364;2024-03-06T20:27:10;100080.63;;;7.15;83.75
48027;BME280;50714;49.208;5.364;2024-03-06T20:37:10;100080.63;;;7.15;84.61
48027;BME280;50714;49.208;5.364;2024-03-06T20:47:11;100078.28;;;7.20;85.04
48027;BME280;50714;49.208;5.364;2024-03-06T20:57:11;100077.78;;;7.25;86.45
48027;BME280;50714;49.208;5.364;2024-03-06T21:07:11;100069.06;;;7.31;85.96
48027;BME280;50714;49.208;5.364;2024-03-06T21:17:12;100066.03;;;7.34;86.81
48027;BME280;50714;49.208;5.364;2024-03-06T21:27:12;100062.00;;;7.38;87.87
48027;BME280;50714;49.208;5.364;2024-03-06T21:37:13;100069.72;;;7.41;88.75
48027;BME280;50714;49.208;5.364;2024-03-06T21:47:14;100086.66;;;7.41;89.12
48027;BME280;50714;49.208;5.364;2024-03-06T21:57:14;100078.63;;;7.41;90.49
48027;BME280;50714;49.208;5.364;2024-03-06T22:07:15;100071.41;;;7.42;91.02
48027;BME280;50714;49.208;5.364;2024-03-06T22:17:15;100064.69;;;7.38;91.77
48027;BME280;50714;49.208;5.364;2024-03-06T22:27:16;100069.88;;;7.39;91.89
48027;BME280;50714;49.208;5.364;2024-03-06T22:37:16;100066.53;;;7.37;92.61
48027;BME280;50714;49.208;5.364;2024-03-06T22:47:18;100061.50;;;7.34;93.47
48027;BME280;50714;49.208;5.364;2024-03-06T22:57:19;100053.44;;;7.34;93.52
48027;BME280;50714;49.208;5.364;2024-03-06T23:07:21;100051.97;;;7.32;93.57
48027;BME280;50714;49.208;5.364;2024-03-06T23:17:22;100042.22;;;7.31;94.23
48027;BME280;50714;49.208;5.364;2024-03-06T23:27:24;100039.03;;;7.27;94.93
48027;BME280;50714;49.208;5.364;2024-03-06T23:37:24;100040.22;;;7.25;95.36
48027;BME280;50714;49.208;5.364;2024-03-06T23:47:24;100030.31;;;7.25;95.54
48027;BME280;50714;49.208;5.364;2024-03-06T23:57:26;100029.47;;;7.25;95.78
